sensor_id;sensor_type;location;lat;lon;timestamp;P1;durP1;ratioP1;P2;durP2;ratioP2
67867;SDS011;54672;46.096;14.470;2022-10-30T00:00:50;18.58;;;9.23;;
67867;SDS011;54672;46.096;14.470;2022-10-30T00:03:15;17.60;;;9.00;;
67867;SDS011;54672;46.096;14.470;2022-10-30T00:05:42;20.13;;;9.85;;
67867;SDS011;54672;46.096;14.470;2022-10-30T00:08:10;18.80;;;9.73;;
67867;SDS011;54672;46.096;14.470;2022-10-30T00:10:37;16.83;;;9.68;;
67867;SDS011;54672;46.096;14.470;2022-10-30T00:13:02;20.08;;;9.45;;
67867;SDS011;54672;46.096;14.470;2022-10-30T00:15:28;18.75;;;9.07;;
67867;SDS011;54672;46.096;14.470;2022-10-30T00:17:53;16.30;;;8.18;;
67867;SDS011;54672;46.096;14.470;2022-10-30T00:20:18;16.60;;;9.27;;
67867;SDS011;54672;46.096;14.470;2022-10-30T00:22:44;15.10;;;8.18;;
67867;SDS011;54672;46.096;14.470;2022-10-30T00:25:09;19.60;;;9.80;;
67867;SDS011;54672;46.096;14.470;2022-10-30T00:27:34;17.27;;;9.13;;
67867;SDS011;54672;46.096;14.470;2022-10-30T00:30:00;19.55;;;10.10;;
67867;SDS011;54672;46.096;14.470;2022-10-30T00:32:26;20.63;;;10.68;;
67867;SDS011;54672;46.096;14.470;2022-10-30T00:34:52;26.55;;;12.23;;
67867;SDS011;54672;46.096;14.470;2022-10-30T00:37:17;22.58;;;12.23;;
67867;SDS011;54672;46.096;14.470;2022-10-30T00:39:42;30.65;;;12.02;;
67867;SDS011;54672;46.096;14.470;2022-10-30T00:42:10;24.75;;;13.02;;
67867;SDS011;54672;46.096;14.470;2022-10-30T00:47:12;27.00;;;13.30;;
67867;SDS011;54672;46.096;14.470;2022-10-30T00:50:11;37.88;;;13.48;;
67867;SDS011;54672;46.096;14.470;2022-10-30T00:52:45;28.63;;;13.57;;
67867;SDS011;54672;46.096;14.470;2022-10-30T00:55:25;29.92;;;12.27;;
67867;SDS011;54672;46.096;14.470;2022-10-30T00:57:55;29.05;;;12.85;;
67867;SDS011;54672;46.096;14.470;2022-10-30T01:00:23;29.08;;;13.07;;
67867;SDS011;54672;46.096;14.470;2022-10-30T01:02:51;24.30;;;11.98;;
67867;SDS011;54672;46.096;14.470;2022-10-30T01:05:17;31.52;;;12.40;;
67867;SDS011;54672;46.096;14.470;2022-10-30T01:07:45;45.28;;;12.48;;
67867;SDS011;54672;46.096;14.470;2022-10-30T01:10:11;44.78;;;13.00;;
67867;SDS011;54672;46.096;14.470;2022-10-30T01:12:37;37.47;;;13.15;;
67867;SDS011;54672;46.096;14.470;2022-10-30T01:15:04;52.10;;;14.77;;
67867;SDS011;54672;46.096;14.470;2022-10-30T01:31:04;58.03;;;13.65;;
67867;SDS011;54672;46.096;14.470;2022-10-30T01:34:02;44.40;;;13.23;;
67867;SDS011;54672;46.096;14.470;2022-10-30T01:36:37;38.83;;;12.50;;
67867;SDS011;54672;46.096;14.470;2022-10-30T01:41:45;34.42;;;13.13;;
67867;SDS011;54672;46.096;14.470;2022-10-30T01:44:15;45.92;;;14.13;;
67867;SDS011;54672;46.096;14.470;2022-10-30T01:57:39;46.53;;;13.25;;
67867;SDS011;54672;46.096;14.470;2022-10-30T02:00:13;55.58;;;14.15;;
67867;SDS011;54672;46.096;14.470;2022-10-30T02:02:40;47.17;;;14.32;;
67867;SDS011;54672;46.096;14.470;2022-10-30T02:05:07;43.92;;;14.13;;
67867;SDS011;54672;46.096;14.470;2022-10-30T02:07:35;39.63;;;13.25;;
67867;SDS011;54672;46.096;14.470;2022-10-30T02:10:00;42.17;;;12.93;;
67867;SDS011;54672;46.096;14.470;2022-10-30T02:12:26;35.35;;;12.77;;
67867;SDS011;54672;46.096;14.470;2022-10-30T02:14:53;41.28;;;12.60;;
67867;SDS011;54672;46.096;14.470;2022-10-30T02:17:22;53.42;;;13.93;;
67867;SDS011;54672;46.096;14.470;2022-10-30T02:19:48;57.58;;;14.50;;
67867;SDS011;54672;46.096;14.470;2022-10-30T02:22:13;40.83;;;12.40;;
67867;SDS011;54672;46.096;14.470;2022-10-30T02:24:39;50.28;;;12.70;;
67867;SDS011;54672;46.096;14.470;2022-10-30T02:27:04;47.33;;;13.30;;
67867;SDS011;54672;46.096;14.470;2022-10-30T02:29:30;82.15;;;14.57;;
67867;SDS011;54672;46.096;14.470;2022-10-30T02:31:55;36.97;;;11.68;;
67867;SDS011;54672;46.096;14.470;2022-10-30T02:34:20;65.35;;;12.65;;
67867;SDS011;54672;46.096;14.470;2022-10-30T02:36:46;57.63;;;13.25;;
67867;SDS011;54672;46.096;14.470;2022-10-30T02:39:11;43.95;;;12.10;;
67867;SDS011;54672;46.096;14.470;2022-10-30T02:41:37;53.08;;;14.60;;
67867;SDS011;54672;46.096;14.470;2022-10-30T02:44:02;61.28;;;13.82;;
67867;SDS011;54672;46.096;14.470;2022-10-30T02:46:29;51.30;;;13.15;;
67867;SDS011;54672;46.096;14.470;2022-10-30T02:48:54;50.53;;;13.32;;
67867;SDS011;54672;46.096;14.470;2022-10-30T02:51:19;64.80;;;14.00;;
67867;SDS011;54672;46.096;14.470;2022-10-30T02:53:45;64.97;;;14.55;;
67867;SDS011;54672;46.096;14.470;2022-10-30T02:56:12;32.17;;;13.63;;
67867;SDS011;54672;46.096;14.470;2022-10-30T02:58:38;54.03;;;13.75;;
67867;SDS011;54672;46.096;14.470;2022-10-30T03:01:10;33.28;;;13.05;;
67867;SDS011;54672;46.096;14.470;2022-10-30T03:03:38;47.00;;;14.25;;
67867;SDS011;54672;46.096;14.470;2022-10-30T03:06:04;37.17;;;11.73;;
67867;SDS011;54672;46.096;14.470;2022-10-30T03:08:31;45.22;;;12.40;;
67867;SDS011;54672;46.096;14.470;2022-10-30T03:11:01;31.05;;;11.00;;
67867;SDS011;54672;46.096;14.470;2022-10-30T03:13:28;40.55;;;11.23;;
67867;SDS011;54672;46.096;14.470;2022-10-30T03:16:38;62.92;;;11.60;;
67867;SDS011;54672;46.096;14.470;2022-10-30T03:18:46;100.88;;;13.82;;
67867;SDS011;54672;46.096;14.470;2022-10-30T03:21:14;95.82;;;14.07;;
67867;SDS011;54672;46.096;14.470;2022-10-30T03:23:42;59.47;;;12.45;;
67867;SDS011;54672;46.096;14.470;2022-10-30T03:26:07;45.35;;;10.30;;
67867;SDS011;54672;46.096;14.470;2022-10-30T03:28:33;52.70;;;11.68;;
67867;SDS011;54672;46.096;14.470;2022-10-30T03:31:09;39.45;;;11.13;;
67867;SDS011;54672;46.096;14.470;2022-10-30T03:33:39;41.03;;;11.32;;
67867;SDS011;54672;46.096;14.470;2022-10-30T03:36:05;37.63;;;10.10;;
67867;SDS011;54672;46.096;14.470;2022-10-30T03:38:32;49.90;;;12.50;;
67867;SDS011;54672;46.096;14.470;2022-10-30T03:40:58;65.40;;;12.52;;
67867;SDS011;54672;46.096;14.470;2022-10-30T03:43:24;36.53;;;10.82;;
67867;SDS011;54672;46.096;14.470;2022-10-30T03:45:52;67.35;;;11.70;;
67867;SDS011;54672;46.096;14.470;2022-10-30T03:48:20;38.42;;;10.25;;
67867;SDS011;54672;46.096;14.470;2022-10-30T03:50:47;43.03;;;10.77;;
67867;SDS011;54672;46.096;14.470;2022-10-30T03:53:13;169.05;;;18.38;;
67867;SDS011;54672;46.096;14.470;2022-10-30T03:55:39;33.42;;;10.20;;
67867;SDS011;54672;46.096;14.470;2022-10-30T03:58:04;26.27;;;10.65;;
67867;SDS011;54672;46.096;14.470;2022-10-30T04:00:31;92.20;;;17.08;;
67867;SDS011;54672;46.096;14.470;2022-10-30T04:02:57;66.38;;;12.70;;
67867;SDS011;54672;46.096;14.470;2022-10-30T04:05:23;43.72;;;9.65;;
67867;SDS011;54672;46.096;14.470;2022-10-30T04:07:53;36.78;;;9.65;;
67867;SDS011;54672;46.096;14.470;2022-10-30T04:10:20;45.38;;;9.45;;
67867;SDS011;54672;46.096;14.470;2022-10-30T04:12:45;53.28;;;10.15;;
67867;SDS011;54672;46.096;14.470;2022-10-30T04:15:10;102.40;;;12.07;;
67867;SDS011;54672;46.096;14.470;2022-10-30T04:17:36;32.42;;;11.30;;
67867;SDS011;54672;46.096;14.470;2022-10-30T04:20:01;27.05;;;10.77;;
67867;SDS011;54672;46.096;14.470;2022-10-30T04:22:27;39.72;;;9.70;;
67867;SDS011;54672;46.096;14.470;2022-10-30T04:24:52;21.58;;;8.95;;
67867;SDS011;54672;46.096;14.470;2022-10-30T04:27:18;31.80;;;8.45;;
67867;SDS011;54672;46.096;14.470;2022-10-30T04:29:44;34.53;;;8.40;;
67867;SDS011;54672;46.096;14.470;2022-10-30T04:32:10;39.17;;;9.05;;
67867;SDS011;54672;46.096;14.470;2022-10-30T04:34:36;37.08;;;9.27;;
67867;SDS011;54672;46.096;14.470;2022-10-30T04:37:03;24.38;;;8.20;;
67867;SDS011;54672;46.096;14.470;2022-10-30T04:39:29;25.40;;;7.82;;
67867;SDS011;54672;46.096;14.470;2022-10-30T04:41:55;21.65;;;7.82;;
67867;SDS011;54672;46.096;14.470;2022-10-30T04:44:20;25.38;;;7.95;;
67867;SDS011;54672;46.096;14.470;2022-10-30T04:46:46;25.92;;;8.57;;
67867;SDS011;54672;46.096;14.470;2022-10-30T04:49:11;23.20;;;9.10;;
67867;SDS011;54672;46.096;14.470;2022-10-30T04:51:36;18.02;;;8.07;;
67867;SDS011;54672;46.096;14.470;2022-10-30T04:54:02;57.45;;;10.68;;
67867;SDS011;54672;46.096;14.470;2022-10-30T04:56:27;30.98;;;9.35;;
67867;SDS011;54672;46.096;14.470;2022-10-30T04:58:53;26.58;;;9.20;;
67867;SDS011;54672;46.096;14.470;2022-10-30T05:01:18;28.08;;;9.55;;
67867;SDS011;54672;46.096;14.470;2022-10-30T05:03:44;30.15;;;9.18;;
67867;SDS011;54672;46.096;14.470;2022-10-30T05:06:18;32.58;;;10.57;;
67867;SDS011;54672;46.096;14.470;2022-10-30T05:08:47;36.97;;;11.00;;
67867;SDS011;54672;46.096;14.470;2022-10-30T05:11:12;43.05;;;11.88;;
67867;SDS011;54672;46.096;14.470;2022-10-30T05:13:38;33.30;;;10.23;;
67867;SDS011;54672;46.096;14.470;2022-10-30T05:16:03;46.25;;;10.57;;
67867;SDS011;54672;46.096;14.470;2022-10-30T05:18:29;25.23;;;9.77;;
67867;SDS011;54672;46.096;14.470;2022-10-30T05:20:54;42.88;;;10.65;;
67867;SDS011;54672;46.096;14.470;2022-10-30T05:23:20;9.85;;;2.80;;
67867;SDS011;54672;46.096;14.470;2022-10-30T05:25:45;9.48;;;3.95;;
67867;SDS011;54672;46.096;14.470;2022-10-30T05:28:10;7.32;;;3.92;;
67867;SDS011;54672;46.096;14.470;2022-10-30T05:30:36;11.10;;;4.85;;
67867;SDS011;54672;46.096;14.470;2022-10-30T05:33:03;9.43;;;4.35;;
67867;SDS011;54672;46.096;14.470;2022-10-30T05:35:30;9.82;;;3.72;;
67867;SDS011;54672;46.096;14.470;2022-10-30T05:37:59;8.77;;;4.22;;
67867;SDS011;54672;46.096;14.470;2022-10-30T05:40:25;10.35;;;4.90;;
67867;SDS011;54672;46.096;14.470;2022-10-30T05:42:51;6.25;;;4.28;;
67867;SDS011;54672;46.096;14.470;2022-10-30T05:45:17;8.57;;;4.20;;
67867;SDS011;54672;46.096;14.470;2022-10-30T05:47:42;7.85;;;3.30;;
67867;SDS011;54672;46.096;14.470;2022-10-30T05:50:08;8.30;;;3.95;;
67867;SDS011;54672;46.096;14.470;2022-10-30T05:52:35;7.72;;;3.85;;
67867;SDS011;54672;46.096;14.470;2022-10-30T05:55:01;8.50;;;4.03;;
67867;SDS011;54672;46.096;14.470;2022-10-30T05:57:27;6.88;;;3.75;;
67867;SDS011;54672;46.096;14.470;2022-10-30T05:59:53;8.48;;;4.05;;
67867;SDS011;54672;46.096;14.470;2022-10-30T06:02:19;6.35;;;3.92;;
67867;SDS011;54672;46.096;14.470;2022-10-30T06:04:45;8.85;;;3.92;;
67867;SDS011;54672;46.096;14.470;2022-10-30T06:07:10;12.13;;;4.75;;
67867;SDS011;54672;46.096;14.470;2022-10-30T06:09:35;9.65;;;4.85;;
67867;SDS011;54672;46.096;14.470;2022-10-30T06:12:01;10.43;;;4.30;;
67867;SDS011;54672;46.096;14.470;2022-10-30T06:14:27;8.52;;;4.20;;
67867;SDS011;54672;46.096;14.470;2022-10-30T06:16:52;8.20;;;3.72;;
67867;SDS011;54672;46.096;14.470;2022-10-30T06:19:17;5.90;;;3.55;;
67867;SDS011;54672;46.096;14.470;2022-10-30T06:21:43;5.45;;;3.08;;
67867;SDS011;54672;46.096;14.470;2022-10-30T06:24:08;6.70;;;4.47;;
67867;SDS011;54672;46.096;14.470;2022-10-30T06:26:34;3.30;;;2.63;;
67867;SDS011;54672;46.096;14.470;2022-10-30T06:28:59;4.57;;;3.17;;
67867;SDS011;54672;46.096;14.470;2022-10-30T06:31:25;4.10;;;2.50;;
67867;SDS011;54672;46.096;14.470;2022-10-30T06:33:50;3.72;;;2.47;;
67867;SDS011;54672;46.096;14.470;2022-10-30T06:36:15;13.02;;;2.95;;
67867;SDS011;54672;46.096;14.470;2022-10-30T06:38:41;3.72;;;2.65;;
67867;SDS011;54672;46.096;14.470;2022-10-30T06:41:07;8.52;;;3.80;;
67867;SDS011;54672;46.096;14.470;2022-10-30T06:43:32;4.32;;;2.67;;
67867;SDS011;54672;46.096;14.470;2022-10-30T06:45:58;50.75;;;7.78;;
67867;SDS011;54672;46.096;14.470;2022-10-30T06:48:23;60.65;;;14.20;;
67867;SDS011;54672;46.096;14.470;2022-10-30T06:50:53;99.82;;;21.77;;
67867;SDS011;54672;46.096;14.470;2022-10-30T06:53:19;66.78;;;17.17;;
67867;SDS011;54672;46.096;14.470;2022-10-30T06:55:44;83.30;;;15.02;;
67867;SDS011;54672;46.096;14.470;2022-10-30T06:58:21;39.97;;;12.20;;
67867;SDS011;54672;46.096;14.470;2022-10-30T07:00:47;47.22;;;15.02;;
67867;SDS011;54672;46.096;14.470;2022-10-30T07:03:13;102.55;;;16.13;;
67867;SDS011;54672;46.096;14.470;2022-10-30T07:05:38;39.35;;;12.85;;
67867;SDS011;54672;46.096;14.470;2022-10-30T07:08:03;35.33;;;12.18;;
67867;SDS011;54672;46.096;14.470;2022-10-30T07:10:29;33.45;;;11.95;;
67867;SDS011;54672;46.096;14.470;2022-10-30T07:12:55;51.25;;;14.02;;
67867;SDS011;54672;46.096;14.470;2022-10-30T07:15:22;80.43;;;15.63;;
67867;SDS011;54672;46.096;14.470;2022-10-30T07:17:58;50.17;;;13.02;;
67867;SDS011;54672;46.096;14.470;2022-10-30T07:20:27;60.15;;;12.55;;
67867;SDS011;54672;46.096;14.470;2022-10-30T07:22:55;73.43;;;12.40;;
67867;SDS011;54672;46.096;14.470;2022-10-30T07:25:20;129.02;;;14.30;;
67867;SDS011;54672;46.096;14.470;2022-10-30T07:27:46;142.90;;;15.80;;
67867;SDS011;54672;46.096;14.470;2022-10-30T07:30:17;103.57;;;13.00;;
67867;SDS011;54672;46.096;14.470;2022-10-30T07:32:44;120.53;;;12.68;;
67867;SDS011;54672;46.096;14.470;2022-10-30T07:35:11;102.03;;;11.85;;
67867;SDS011;54672;46.096;14.470;2022-10-30T07:37:37;91.75;;;28.40;;
67867;SDS011;54672;46.096;14.470;2022-10-30T07:40:03;49.20;;;10.98;;
67867;SDS011;54672;46.096;14.470;2022-10-30T07:42:29;40.28;;;9.77;;
67867;SDS011;54672;46.096;14.470;2022-10-30T07:44:55;54.10;;;10.38;;
67867;SDS011;54672;46.096;14.470;2022-10-30T07:47:20;74.55;;;10.95;;
67867;SDS011;54672;46.096;14.470;2022-10-30T07:49:45;77.40;;;13.35;;
67867;SDS011;54672;46.096;14.470;2022-10-30T07:52:11;44.85;;;9.38;;
67867;SDS011;54672;46.096;14.470;2022-10-30T07:54:36;36.83;;;10.23;;
67867;SDS011;54672;46.096;14.470;2022-10-30T07:57:02;36.63;;;9.40;;
67867;SDS011;54672;46.096;14.470;2022-10-30T07:59:27;34.88;;;10.73;;
67867;SDS011;54672;46.096;14.470;2022-10-30T08:01:53;64.75;;;10.63;;
67867;SDS011;54672;46.096;14.470;2022-10-30T08:04:18;52.45;;;9.07;;
67867;SDS011;54672;46.096;14.470;2022-10-30T08:06:43;42.20;;;9.10;;
67867;SDS011;54672;46.096;14.470;2022-10-30T08:09:09;58.00;;;9.38;;
67867;SDS011;54672;46.096;14.470;2022-10-30T08:11:34;63.85;;;9.85;;
67867;SDS011;54672;46.096;14.470;2022-10-30T08:14:00;39.00;;;9.80;;
67867;SDS011;54672;46.096;14.470;2022-10-30T08:16:25;35.28;;;9.55;;
67867;SDS011;54672;46.096;14.470;2022-10-30T08:18:51;34.58;;;9.63;;
67867;SDS011;54672;46.096;14.470;2022-10-30T08:21:16;36.47;;;8.93;;
67867;SDS011;54672;46.096;14.470;2022-10-30T08:23:42;78.93;;;11.18;;
67867;SDS011;54672;46.096;14.470;2022-10-30T08:26:07;37.80;;;9.27;;
67867;SDS011;54672;46.096;14.470;2022-10-30T08:28:33;45.95;;;9.23;;
67867;SDS011;54672;46.096;14.470;2022-10-30T08:30:58;35.28;;;9.57;;
67867;SDS011;54672;46.096;14.470;2022-10-30T08:33:25;118.07;;;12.85;;
67867;SDS011;54672;46.096;14.470;2022-10-30T08:35:51;113.47;;;11.35;;
67867;SDS011;54672;46.096;14.470;2022-10-30T08:38:18;29.88;;;8.73;;
67867;SDS011;54672;46.096;14.470;2022-10-30T08:40:44;40.05;;;9.50;;
67867;SDS011;54672;46.096;14.470;2022-10-30T08:43:09;24.77;;;10.30;;
67867;SDS011;54672;46.096;14.470;2022-10-30T08:45:35;28.73;;;10.20;;
67867;SDS011;54672;46.096;14.470;2022-10-30T08:48:01;49.45;;;11.30;;
67867;SDS011;54672;46.096;14.470;2022-10-30T08:50:28;36.72;;;9.90;;
67867;SDS011;54672;46.096;14.470;2022-10-30T08:52:54;36.22;;;10.60;;
67867;SDS011;54672;46.096;14.470;2022-10-30T08:55:20;56.40;;;13.07;;
67867;SDS011;54672;46.096;14.470;2022-10-30T08:57:45;68.15;;;14.88;;
67867;SDS011;54672;46.096;14.470;2022-10-30T09:00:11;105.18;;;15.13;;
67867;SDS011;54672;46.096;14.470;2022-10-30T09:02:37;90.38;;;13.48;;
67867;SDS011;54672;46.096;14.470;2022-10-30T09:05:04;22.00;;;11.57;;
67867;SDS011;54672;46.096;14.470;2022-10-30T09:07:30;36.13;;;12.25;;
67867;SDS011;54672;46.096;14.470;2022-10-30T09:09:56;20.77;;;10.38;;
67867;SDS011;54672;46.096;14.470;2022-10-30T09:12:21;21.40;;;10.13;;
67867;SDS011;54672;46.096;14.470;2022-10-30T09:14:47;27.95;;;11.48;;
67867;SDS011;54672;46.096;14.470;2022-10-30T09:17:12;22.10;;;10.75;;
67867;SDS011;54672;46.096;14.470;2022-10-30T09:19:37;23.27;;;12.27;;
67867;SDS011;54672;46.096;14.470;2022-10-30T09:22:03;20.88;;;12.32;;
67867;SDS011;54672;46.096;14.470;2022-10-30T09:24:28;20.20;;;11.70;;
67867;SDS011;54672;46.096;14.470;2022-10-30T09:26:54;23.38;;;11.30;;
67867;SDS011;54672;46.096;14.470;2022-10-30T09:29:20;28.55;;;11.70;;
67867;SDS011;54672;46.096;14.470;2022-10-30T09:31:45;20.88;;;11.07;;
67867;SDS011;54672;46.096;14.470;2022-10-30T09:34:11;16.25;;;10.20;;
67867;SDS011;54672;46.096;14.470;2022-10-30T09:36:36;19.38;;;16.10;;
67867;SDS011;54672;46.096;14.470;2022-10-30T09:39:02;27.50;;;13.38;;
67867;SDS011;54672;46.096;14.470;2022-10-30T10:01:15;16.25;;;12.15;;
67867;SDS011;54672;46.096;14.470;2022-10-30T10:06:18;14.45;;;12.00;;
67867;SDS011;54672;46.096;14.470;2022-10-30T10:11:14;19.65;;;13.02;;
67867;SDS011;54672;46.096;14.470;2022-10-30T10:13:45;25.10;;;13.73;;
67867;SDS011;54672;46.096;14.470;2022-10-30T10:16:19;24.30;;;13.52;;
67867;SDS011;54672;46.096;14.470;2022-10-30T10:18:52;25.87;;;14.13;;
67867;SDS011;54672;46.096;14.470;2022-10-30T10:21:23;25.65;;;14.88;;
67867;SDS011;54672;46.096;14.470;2022-10-30T10:23:51;27.75;;;14.63;;
67867;SDS011;54672;46.096;14.470;2022-10-30T10:26:25;26.55;;;14.43;;
67867;SDS011;54672;46.096;14.470;2022-10-30T10:29:13;22.92;;;14.32;;
67867;SDS011;54672;46.096;14.470;2022-10-30T10:32:31;23.35;;;13.88;;
67867;SDS011;54672;46.096;14.470;2022-10-30T10:34:43;23.00;;;13.25;;
67867;SDS011;54672;46.096;14.470;2022-10-30T10:37:40;21.75;;;12.50;;
67867;SDS011;54672;46.096;14.470;2022-10-30T10:50:56;21.48;;;12.32;;
67867;SDS011;54672;46.096;14.470;2022-10-30T10:54:00;21.38;;;10.93;;
67867;SDS011;54672;46.096;14.470;2022-10-30T10:56:36;19.73;;;11.88;;
67867;SDS011;54672;46.096;14.470;2022-10-30T11:01:43;18.63;;;10.52;;
67867;SDS011;54672;46.096;14.470;2022-10-30T11:04:32;17.10;;;9.63;;
67867;SDS011;54672;46.096;14.470;2022-10-30T11:07:38;16.23;;;9.30;;
67867;SDS011;54672;46.096;14.470;2022-10-30T11:09:56;18.15;;;8.82;;
67867;SDS011;54672;46.096;14.470;2022-10-30T11:12:33;15.93;;;8.93;;
67867;SDS011;54672;46.096;14.470;2022-10-30T11:18:09;22.38;;;9.00;;
67867;SDS011;54672;46.096;14.470;2022-10-30T11:31:26;15.05;;;7.22;;
67867;SDS011;54672;46.096;14.470;2022-10-30T11:36:46;10.77;;;6.53;;
67867;SDS011;54672;46.096;14.470;2022-10-30T11:39:19;10.60;;;5.70;;
67867;SDS011;54672;46.096;14.470;2022-10-30T11:41:49;7.90;;;5.15;;
67867;SDS011;54672;46.096;14.470;2022-10-30T11:44:31;12.30;;;6.30;;
67867;SDS011;54672;46.096;14.470;2022-10-30T11:47:01;13.88;;;7.00;;
67867;SDS011;54672;46.096;14.470;2022-10-30T11:49:47;13.20;;;7.20;;
67867;SDS011;54672;46.096;14.470;2022-10-30T11:52:17;12.85;;;7.50;;
67867;SDS011;54672;46.096;14.470;2022-10-30T11:54:49;15.68;;;7.22;;
67867;SDS011;54672;46.096;14.470;2022-10-30T11:59:46;12.98;;;6.50;;
67867;SDS011;54672;46.096;14.470;2022-10-30T12:02:24;14.05;;;5.72;;
67867;SDS011;54672;46.096;14.470;2022-10-30T12:04:51;9.95;;;5.65;;
67867;SDS011;54672;46.096;14.470;2022-10-30T12:07:30;13.07;;;5.82;;
67867;SDS011;54672;46.096;14.470;2022-10-30T12:09:57;13.00;;;5.40;;
67867;SDS011;54672;46.096;14.470;2022-10-30T12:15:07;11.88;;;5.22;;
67867;SDS011;54672;46.096;14.470;2022-10-30T12:17:34;10.95;;;5.53;;
67867;SDS011;54672;46.096;14.470;2022-10-30T12:20:02;10.82;;;5.85;;
67867;SDS011;54672;46.096;14.470;2022-10-30T12:22:30;97.10;;;25.77;;
67867;SDS011;54672;46.096;14.470;2022-10-30T12:25:05;6.78;;;3.10;;
67867;SDS011;54672;46.096;14.470;2022-10-30T12:27:39;11.27;;;4.03;;
67867;SDS011;54672;46.096;14.470;2022-10-30T12:30:17;6.90;;;3.50;;
67867;SDS011;54672;46.096;14.470;2022-10-30T12:32:48;10.88;;;3.92;;
67867;SDS011;54672;46.096;14.470;2022-10-30T12:38:17;6.57;;;3.60;;
67867;SDS011;54672;46.096;14.470;2022-10-30T12:41:13;7.85;;;4.18;;
67867;SDS011;54672;46.096;14.470;2022-10-30T12:44:03;10.15;;;3.75;;
67867;SDS011;54672;46.096;14.470;2022-10-30T12:46:59;7.75;;;4.30;;
67867;SDS011;54672;46.096;14.470;2022-10-30T12:50:18;11.15;;;4.35;;
67867;SDS011;54672;46.096;14.470;2022-10-30T12:55:30;8.95;;;4.53;;
67867;SDS011;54672;46.096;14.470;2022-10-30T13:00:40;7.55;;;4.10;;
67867;SDS011;54672;46.096;14.470;2022-10-30T13:03:33;9.63;;;3.88;;
67867;SDS011;54672;46.096;14.470;2022-10-30T13:06:10;7.93;;;3.55;;
67867;SDS011;54672;46.096;14.470;2022-10-30T13:11:44;9.05;;;3.08;;
67867;SDS011;54672;46.096;14.470;2022-10-30T13:14:13;15.50;;;3.90;;
67867;SDS011;54672;46.096;14.470;2022-10-30T13:16:43;8.35;;;4.10;;
67867;SDS011;54672;46.096;14.470;2022-10-30T13:19:09;7.55;;;3.33;;
67867;SDS011;54672;46.096;14.470;2022-10-30T13:24:21;5.85;;;2.60;;
67867;SDS011;54672;46.096;14.470;2022-10-30T13:27:04;6.95;;;3.55;;
67867;SDS011;54672;46.096;14.470;2022-10-30T13:37:47;7.15;;;3.17;;
67867;SDS011;54672;46.096;14.470;2022-10-30T13:45:54;5.63;;;3.28;;
67867;SDS011;54672;46.096;14.470;2022-10-30T13:51:16;8.63;;;3.85;;
67867;SDS011;54672;46.096;14.470;2022-10-30T13:53:43;11.85;;;4.10;;
67867;SDS011;54672;46.096;14.470;2022-10-30T13:56:13;7.07;;;3.55;;
67867;SDS011;54672;46.096;14.470;2022-10-30T13:58:45;6.10;;;3.28;;
67867;SDS011;54672;46.096;14.470;2022-10-30T14:01:25;7.50;;;4.20;;
67867;SDS011;54672;46.096;14.470;2022-10-30T14:15:03;9.13;;;4.35;;
67867;SDS011;54672;46.096;14.470;2022-10-30T14:17:29;8.95;;;3.53;;
67867;SDS011;54672;46.096;14.470;2022-10-30T14:22:29;9.57;;;4.15;;
67867;SDS011;54672;46.096;14.470;2022-10-30T14:24:55;6.68;;;3.67;;
67867;SDS011;54672;46.096;14.470;2022-10-30T14:27:28;8.98;;;4.00;;
67867;SDS011;54672;46.096;14.470;2022-10-30T14:29:55;7.05;;;3.60;;
67867;SDS011;54672;46.096;14.470;2022-10-30T14:37:16;11.32;;;3.88;;
67867;SDS011;54672;46.096;14.470;2022-10-30T14:43:22;6.28;;;3.13;;
67867;SDS011;54672;46.096;14.470;2022-10-30T14:45:55;6.35;;;3.33;;
67867;SDS011;54672;46.096;14.470;2022-10-30T14:50:59;9.20;;;4.10;;
67867;SDS011;54672;46.096;14.470;2022-10-30T14:53:29;14.55;;;4.50;;
67867;SDS011;54672;46.096;14.470;2022-10-30T14:58:30;11.90;;;5.03;;
67867;SDS011;54672;46.096;14.470;2022-10-30T15:07:07;9.18;;;4.45;;
67867;SDS011;54672;46.096;14.470;2022-10-30T15:10:32;9.02;;;3.90;;
67867;SDS011;54672;46.096;14.470;2022-10-30T15:15:30;7.28;;;3.53;;
67867;SDS011;54672;46.096;14.470;2022-10-30T15:17:56;12.02;;;3.60;;
67867;SDS011;54672;46.096;14.470;2022-10-30T15:20:26;10.85;;;3.85;;
67867;SDS011;54672;46.096;14.470;2022-10-30T15:22:59;7.30;;;3.58;;
67867;SDS011;54672;46.096;14.470;2022-10-30T15:25:43;13.93;;;3.50;;
67867;SDS011;54672;46.096;14.470;2022-10-30T15:28:14;10.23;;;3.78;;
67867;SDS011;54672;46.096;14.470;2022-10-30T15:30:57;7.55;;;3.10;;
67867;SDS011;54672;46.096;14.470;2022-10-30T15:33:23;7.90;;;3.47;;
67867;SDS011;54672;46.096;14.470;2022-10-30T15:35:48;133.63;;;19.52;;
67867;SDS011;54672;46.096;14.470;2022-10-30T15:38:14;7.82;;;3.58;;
67867;SDS011;54672;46.096;14.470;2022-10-30T15:40:39;6.40;;;3.45;;
67867;SDS011;54672;46.096;14.470;2022-10-30T15:43:06;6.72;;;3.22;;
67867;SDS011;54672;46.096;14.470;2022-10-30T15:45:43;6.93;;;3.20;;
67867;SDS011;54672;46.096;14.470;2022-10-30T15:48:27;5.07;;;2.50;;
67867;SDS011;54672;46.096;14.470;2022-10-30T15:51:02;7.75;;;3.30;;
67867;SDS011;54672;46.096;14.470;2022-10-30T15:56:00;5.30;;;3.13;;
67867;SDS011;54672;46.096;14.470;2022-10-30T15:58:26;9.82;;;4.43;;
67867;SDS011;54672;46.096;14.470;2022-10-30T16:00:59;10.30;;;5.93;;
67867;SDS011;54672;46.096;14.470;2022-10-30T16:03:26;10.90;;;5.38;;
67867;SDS011;54672;46.096;14.470;2022-10-30T16:06:04;7.97;;;4.00;;
67867;SDS011;54672;46.096;14.470;2022-10-30T16:08:44;12.98;;;4.00;;
67867;SDS011;54672;46.096;14.470;2022-10-30T16:11:12;8.75;;;3.92;;
67867;SDS011;54672;46.096;14.470;2022-10-30T16:13:38;8.27;;;4.10;;
67867;SDS011;54672;46.096;14.470;2022-10-30T16:16:04;7.90;;;4.05;;
67867;SDS011;54672;46.096;14.470;2022-10-30T16:18:32;14.57;;;4.25;;
67867;SDS011;54672;46.096;14.470;2022-10-30T16:21:06;7.75;;;3.33;;
67867;SDS011;54672;46.096;14.470;2022-10-30T16:23:49;6.55;;;3.60;;
67867;SDS011;54672;46.096;14.470;2022-10-30T16:26:27;12.25;;;4.82;;
67867;SDS011;54672;46.096;14.470;2022-10-30T16:28:58;12.00;;;5.32;;
67867;SDS011;54672;46.096;14.470;2022-10-30T16:31:36;8.90;;;4.38;;
67867;SDS011;54672;46.096;14.470;2022-10-30T16:34:02;8.25;;;4.35;;
67867;SDS011;54672;46.096;14.470;2022-10-30T16:36:33;11.52;;;4.80;;
67867;SDS011;54672;46.096;14.470;2022-10-30T16:38:58;7.53;;;3.80;;
67867;SDS011;54672;46.096;14.470;2022-10-30T16:41:24;7.85;;;4.20;;
67867;SDS011;54672;46.096;14.470;2022-10-30T16:46:57;11.77;;;4.60;;
67867;SDS011;54672;46.096;14.470;2022-10-30T16:49:47;9.27;;;4.57;;
67867;SDS011;54672;46.096;14.470;2022-10-30T16:52:16;8.45;;;4.15;;
67867;SDS011;54672;46.096;14.470;2022-10-30T16:54:48;10.73;;;4.97;;
67867;SDS011;54672;46.096;14.470;2022-10-30T16:57:42;9.55;;;5.60;;
67867;SDS011;54672;46.096;14.470;2022-10-30T17:00:20;13.02;;;6.88;;
67867;SDS011;54672;46.096;14.470;2022-10-30T17:02:50;15.73;;;6.82;;
67867;SDS011;54672;46.096;14.470;2022-10-30T17:05:27;10.10;;;5.40;;
67867;SDS011;54672;46.096;14.470;2022-10-30T17:07:58;13.05;;;5.28;;
67867;SDS011;54672;46.096;14.470;2022-10-30T17:13:38;15.32;;;6.63;;
67867;SDS011;54672;46.096;14.470;2022-10-30T17:16:16;10.45;;;6.18;;